Saint-Jean-Baptiste, Canada
Current Conditions -  °F | °C
As of 4:00 AM on Friday 31 Oct 2014 (Local Time) from CYQB Reporting Station
Overcast Overcast  
Wind Chill: 37°   Ceiling: 5300
Heat Index: 37°   Visibility: 15mi
Dew Point: 32°   Wind: 3mph
Humidity: 81%   Direction: 220°SW
Pressure: 29.99"   Gusts: NA
Location:  47.12°N, 70.18°W
Report Text: CYQB 310800Z 22003KT 15SM OVC053 03/00 A2999 RMK SC8 SLP159
Loading
Personal Weather Stations






























Interactive Weather Map
Tropical Storm Tracking
New forecast layout! Learn more

10-Day Weather Forecast

Advertisements
Track Severe Weather on mobile